Mustafa Dayi — TCZF2 — position and weather

sailwx.info

Track history (hours):
 
Tides and Currents Weather Stations Pressure Air Temp Water Temp Dewpoint Dewpoint Depression Visibility Wind Speed Wind Dir Waves Ship Positions

Mustafa Dayi

Last reported at 2017-Jun-19 12:32 UTC. Time now 2017-Jun-28 02:03 UTC.
Position N 31°58' W 080°42'.
Warning: this ship's position is 8 days out of date.

Length 183 m; draft 9.8 m.

Type: Ship (hazmat cat A). MMSI: 271042433.

Date/timePositionNaut miles runAvg speedWind from/ knotsBaromVisibWave heightAir tempDewpointWater temp
2017-Jun-19 12:32N 31°58' W 080°42'0 9.9
2017-Jun-19 12:30N 31°58' W 080°43'713.1
2017-Jun-19 12:00N 32°02' W 080°49'612.6
2017-Jun-19 11:30N 32°03' W 080°56'510.0
2017-Jun-19 11:00N 32°05' W 081°02'4 7.2
2017-Jun-19 10:30N 32°05' W 081°06'3 5.1
2017-Jun-19 10:00N 32°07' W 081°08'0 0.0
2017-Jun-19 09:30N 32°07' W 081°08'0 0.0
2017-Jun-19 08:29N 32°07' W 081°08'0 0.0
2017-Jun-19 07:59N 32°07' W 081°08'0 0.0
2017-Jun-19 07:29N 32°07' W 081°08'0 0.0
2017-Jun-19 06:58N 32°07' W 081°08'0 0.0
2017-Jun-19 06:28N 32°07' W 081°08'0 0.0
2017-Jun-19 05:58N 32°07' W 081°08'0 0.0
2017-Jun-19 05:28N 32°07' W 081°08'0 0.0
2017-Jun-19 04:58N 32°07' W 081°08'0 0.0
2017-Jun-19 04:27N 32°07' W 081°08'0 0.0
2017-Jun-19 03:57N 32°07' W 081°08'0 0.0
2017-Jun-19 03:21N 32°07' W 081°08'0 0.0
2017-Jun-19 02:57N 32°07' W 081°08'0 0.0
2017-Jun-19 02:27N 32°07' W 081°08'0 0.0
2017-Jun-19 01:50N 32°07' W 081°08'0 0.0
2017-Jun-19 01:26N 32°07' W 081°08'0 0.0
2017-Jun-19 00:44N 32°07' W 081°08'0 0.0
2017-Jun-19 00:14N 32°07' W 081°08'0 0.0
2017-Jun-18 23:55N 32°07' W 081°08'0 0.0
2017-Jun-18 23:25N 32°07' W 081°08'0 0.0
2017-Jun-18 22:55N 32°07' W 081°08'0 0.0
2017-Jun-18 22:25N 32°07' W 081°08'0 0.0
2017-Jun-18 21:55N 32°07' W 081°08'0 0.0
2017-Jun-18 21:30N 32°07' W 081°08'0 0.0
2017-Jun-18 21:00N 32°07' W 081°08'0 0.0
2017-Jun-18 20:24N 32°07' W 081°08'0 0.0
2017-Jun-18 20:00N 32°07' W 081°08'0 0.0
2017-Jun-18 19:23N 32°07' W 081°08'0 0.0
2017-Jun-18 18:59N 32°07' W 081°08'0 0.0
2017-Jun-18 18:23N 32°07' W 081°08'0 0.0
2017-Jun-18 17:59N 32°07' W 081°08'0 0.0
2017-Jun-18 17:29N 32°07' W 081°08'0 0.0
2017-Jun-18 16:52N 32°07' W 081°08'0 0.1
2017-Jun-18 16:30N 32°07' W 081°08'0 0.2
2017-Jun-18 16:00N 32°07' W 081°08'2 4.2
2017-Jun-18 15:30N 32°06' W 081°06'2 5.0
2017-Jun-18 15:00N 32°05' W 081°04'8 7.8
2017-Jun-18 14:00N 32°02' W 080°55'611.9
2017-Jun-18 13:30N 32°01' W 080°48'714.1
2017-Jun-18 13:00N 31°57' W 080°41'4 7.9
2017-Jun-18 12:30N 31°56' W 080°36'4 8.2
2017-Jun-18 12:00N 31°56' W 080°32'5 9.7
2017-Jun-18 11:27N 31°57' W 080°25'5 9.6
2017-Jun-18 10:57N 31°57' W 080°20'5 9.5
2017-Jun-18 10:29N 31°58' W 080°15'5 9.5
2017-Jun-18 09:59N 31°60' W 080°09'5 9.5
2017-Jun-18 09:30N 32°02' W 080°04'5 9.5
2017-Jun-18 09:00N 32°03' W 079°59'23311.8
2017-Jun-17 13:17N 34°19' W 076°14'16010.1
2017-Jun-16 21:31N 36°59' W 076°09'013.0
2017-Jun-16 21:30N 36°59' W 076°09'13 1.0
2017-Jun-16 07:54N 36°54' W 075°54'3 6.7
2017-Jun-16 07:30N 36°52' W 075°51'4 8.8
2017-Jun-16 07:00N 36°52' W 075°46'2110.2
2017-Jun-16 04:55N 37°07' W 075°26'1813.5
2017-Jun-16 03:35N 37°22' W 075°14'513.5
2017-Jun-16 03:14N 37°26' W 075°11'513.4
2017-Jun-16 02:54N 37°30' W 075°08'613.5
2017-Jun-16 02:26N 37°35' W 075°03'613.3
2017-Jun-16 02:00N 37°40' W 074°59'2313.4
2017-Jun-16 00:18N 37°58' W 074°43'613.5
2017-Jun-15 23:53N 38°03' W 074°39'713.4
2017-Jun-15 23:20N 38°09' W 074°33'413.4
2017-Jun-15 23:00N 38°12' W 074°30'713.5
2017-Jun-15 22:30N 38°18' W 074°25'713.6
2017-Jun-15 22:00N 38°23' W 074°20'713.5
2017-Jun-15 21:30N 38°29' W 074°15'713.2
2017-Jun-15 21:00N 38°35' W 074°12'713.2
2017-Jun-15 20:29N 38°42' W 074°10'613.1
2017-Jun-15 20:01N 38°48' W 074°08'612.9
2017-Jun-15 19:30N 38°54' W 074°06'712.9
2017-Jun-15 18:59N 39°00' W 074°04'612.8
2017-Jun-15 18:29N 39°07' W 074°01'612.8
2017-Jun-15 18:01N 39°12' W 073°59'612.8
2017-Jun-15 17:30N 39°19' W 073°57'712.7
2017-Jun-15 16:58N 39°25' W 073°55'612.7
2017-Jun-15 16:29N 39°31' W 073°53'612.4
2017-Jun-15 16:00N 39°37' W 073°51'612.7
2017-Jun-15 15:30N 39°43' W 073°51'612.9
2017-Jun-15 15:00N 39°50' W 073°51'1312.7
2017-Jun-15 14:00N 40°03' W 073°50'712.8
2017-Jun-15 13:30N 40°09' W 073°49'612.8
2017-Jun-15 13:00N 40°15' W 073°49'612.8
2017-Jun-15 12:30N 40°22' W 073°49'611.4
2017-Jun-15 12:00N 40°27' W 073°50'714.2
2017-Jun-15 11:31N 40°31' W 073°59'714.5
2017-Jun-15 11:00N 40°37' W 074°03'3 6.9
2017-Jun-15 10:31N 40°39' W 074°07'2 3.3
2017-Jun-15 10:01N 40°40' W 074°09'0 0.1
2017-Jun-15 09:28N 40°40' W 074°09'0 0.0
2017-Jun-15 09:00N 40°40' W 074°09'0 0.0
2017-Jun-15 08:30N 40°40' W 074°09'0 0.0
2017-Jun-15 08:00N 40°40' W 074°09'0 0.0
2017-Jun-15 07:30N 40°40' W 074°09'0 0.0
2017-Jun-15 07:00N 40°40' W 074°09'0 0.0
2017-Jun-15 06:29N 40°40' W 074°09'0 0.0
2017-Jun-15 05:59N 40°40' W 074°09'0 0.0
2017-Jun-15 05:29N 40°40' W 074°09'0 0.0
2017-Jun-15 04:59N 40°40' W 074°09'0 0.0
2017-Jun-15 04:29N 40°40' W 074°09'0 0.0
2017-Jun-15 03:58N 40°40' W 074°09'0 0.0
2017-Jun-15 03:28N 40°40' W 074°09'0 0.0
2017-Jun-15 02:58N 40°40' W 074°09'0 0.0
2017-Jun-15 02:28N 40°40' W 074°09'0 0.0
2017-Jun-15 02:00N 40°40' W 074°09'0 0.0
2017-Jun-15 01:30N 40°40' W 074°09'0 0.0
2017-Jun-15 01:00N 40°40' W 074°09'0 0.0
2017-Jun-15 00:30N 40°40' W 074°09'0 0.0
2017-Jun-15 00:00N 40°40' W 074°09'0 0.0
2017-Jun-14 23:30N 40°40' W 074°09'0 0.0
2017-Jun-14 22:59N 40°40' W 074°09'0 0.0
2017-Jun-14 22:26N 40°40' W 074°09'0 0.0
2017-Jun-14 21:59N 40°40' W 074°09'0 0.0
2017-Jun-14 21:29N 40°40' W 074°09'0 0.0
2017-Jun-14 20:49N 40°40' W 074°09'0 0.0
2017-Jun-14 20:28N 40°40' W 074°09'0 0.0
2017-Jun-14 19:58N 40°40' W 074°09'0 0.4
2017-Jun-14 19:30N 40°39' W 074°09'2 3.4
2017-Jun-14 19:00N 40°39' W 074°07'3 6.0
2017-Jun-14 18:30N 40°38' W 074°03'510.6
2017-Jun-14 18:00N 40°33' W 074°01'612.9
2017-Jun-14 17:30N 40°29' W 073°54'5 9.7
2017-Jun-14 17:00N 40°28' W 073°48'4 8.7
2017-Jun-14 16:30N 40°27' W 073°42'4 0.4
2017-Jun-14 07:00N 40°29' W 073°38'0 0.0
2017-Jun-14 06:02N 40°29' W 073°38'0 0.0
2017-Jun-14 05:53N 40°29' W 073°38'0 0.0
2017-Jun-14 03:52N 40°29' W 073°38'0 0.2
2017-Jun-14 03:20N 40°29' W 073°38'1 2.2
2017-Jun-14 03:00N 40°28' W 073°37'1011.5
2017-Jun-14 02:08N 40°19' W 073°33'212.8
2017-Jun-14 01:59N 40°18' W 073°31'3412.8
2017-Jun-13 23:21N 39°56' W 072°57'513.2
2017-Jun-13 23:00N 39°53' W 072°53'1213.1
2017-Jun-13 22:05N 39°44' W 072°43'113.0
2017-Jun-13 22:00N 39°43' W 072°42'612.9
2017-Jun-13 21:30N 39°38' W 072°36'713.0
2017-Jun-13 21:00N 39°33' W 072°31'612.5
2017-Jun-13 20:29N 39°28' W 072°25'612.3
2017-Jun-13 19:59N 39°24' W 072°20'612.7
2017-Jun-13 19:29N 39°19' W 072°14'  
Track history (hours):
 
Tides and Currents Weather Stations Pressure Air Temp Water Temp Dewpoint Dewpoint Depression Visibility Wind Speed Wind Dir Waves Ship Positions

Mustafa Dayi

Last reported at 2017-Jun-19 12:32 UTC. Time now 2017-Jun-28 02:03 UTC.
Position N 31°58' W 080°42'.
Warning: this ship's position is 8 days out of date.

Length 183 m; draft 9.8 m.

Type: Ship (hazmat cat A). MMSI: 271042433.

Date/timePositionNaut miles runAvg speedWind from/ knotsBaromVisibWave heightAir tempDewpointWater temp
2017-Jun-19 12:32N 31°58' W 080°42'0 9.9
2017-Jun-19 12:30N 31°58' W 080°43'713.1
2017-Jun-19 12:00N 32°02' W 080°49'612.6
2017-Jun-19 11:30N 32°03' W 080°56'510.0
2017-Jun-19 11:00N 32°05' W 081°02'4 7.2
2017-Jun-19 10:30N 32°05' W 081°06'3 5.1
2017-Jun-19 10:00N 32°07' W 081°08'0 0.0
2017-Jun-19 09:30N 32°07' W 081°08'0 0.0
2017-Jun-19 08:29N 32°07' W 081°08'0 0.0
2017-Jun-19 07:59N 32°07' W 081°08'0 0.0
2017-Jun-19 07:29N 32°07' W 081°08'0 0.0
2017-Jun-19 06:58N 32°07' W 081°08'0 0.0
2017-Jun-19 06:28N 32°07' W 081°08'0 0.0
2017-Jun-19 05:58N 32°07' W 081°08'0 0.0
2017-Jun-19 05:28N 32°07' W 081°08'0 0.0
2017-Jun-19 04:58N 32°07' W 081°08'0 0.0
2017-Jun-19 04:27N 32°07' W 081°08'0 0.0
2017-Jun-19 03:57N 32°07' W 081°08'0 0.0
2017-Jun-19 03:21N 32°07' W 081°08'0 0.0
2017-Jun-19 02:57N 32°07' W 081°08'0 0.0
2017-Jun-19 02:27N 32°07' W 081°08'0 0.0
2017-Jun-19 01:50N 32°07' W 081°08'0 0.0
2017-Jun-19 01:26N 32°07' W 081°08'0 0.0
2017-Jun-19 00:44N 32°07' W 081°08'0 0.0
2017-Jun-19 00:14N 32°07' W 081°08'0 0.0
2017-Jun-18 23:55N 32°07' W 081°08'0 0.0
2017-Jun-18 23:25N 32°07' W 081°08'0 0.0
2017-Jun-18 22:55N 32°07' W 081°08'0 0.0
2017-Jun-18 22:25N 32°07' W 081°08'0 0.0
2017-Jun-18 21:55N 32°07' W 081°08'0 0.0
2017-Jun-18 21:30N 32°07' W 081°08'0 0.0
2017-Jun-18 21:00N 32°07' W 081°08'0 0.0
2017-Jun-18 20:24N 32°07' W 081°08'0 0.0
2017-Jun-18 20:00N 32°07' W 081°08'0 0.0
2017-Jun-18 19:23N 32°07' W 081°08'0 0.0
2017-Jun-18 18:59N 32°07' W 081°08'0 0.0
2017-Jun-18 18:23N 32°07' W 081°08'0 0.0
2017-Jun-18 17:59N 32°07' W 081°08'0 0.0
2017-Jun-18 17:29N 32°07' W 081°08'0 0.0
2017-Jun-18 16:52N 32°07' W 081°08'0 0.1
2017-Jun-18 16:30N 32°07' W 081°08'0 0.2
2017-Jun-18 16:00N 32°07' W 081°08'2 4.2
2017-Jun-18 15:30N 32°06' W 081°06'2 5.0
2017-Jun-18 15:00N 32°05' W 081°04'8 7.8
2017-Jun-18 14:00N 32°02' W 080°55'611.9
2017-Jun-18 13:30N 32°01' W 080°48'714.1
2017-Jun-18 13:00N 31°57' W 080°41'4 7.9
2017-Jun-18 12:30N 31°56' W 080°36'4 8.2
2017-Jun-18 12:00N 31°56' W 080°32'5 9.7
2017-Jun-18 11:27N 31°57' W 080°25'5 9.6
2017-Jun-18 10:57N 31°57' W 080°20'5 9.5
2017-Jun-18 10:29N 31°58' W 080°15'5 9.5
2017-Jun-18 09:59N 31°60' W 080°09'5 9.5
2017-Jun-18 09:30N 32°02' W 080°04'5 9.5
2017-Jun-18 09:00N 32°03' W 079°59'23311.8
2017-Jun-17 13:17N 34°19' W 076°14'16010.1
2017-Jun-16 21:31N 36°59' W 076°09'013.0
2017-Jun-16 21:30N 36°59' W 076°09'13 1.0
2017-Jun-16 07:54N 36°54' W 075°54'3 6.7
2017-Jun-16 07:30N 36°52' W 075°51'4 8.8
2017-Jun-16 07:00N 36°52' W 075°46'2110.2
2017-Jun-16 04:55N 37°07' W 075°26'1813.5
2017-Jun-16 03:35N 37°22' W 075°14'513.5
2017-Jun-16 03:14N 37°26' W 075°11'513.4
2017-Jun-16 02:54N 37°30' W 075°08'613.5
2017-Jun-16 02:26N 37°35' W 075°03'613.3
2017-Jun-16 02:00N 37°40' W 074°59'2313.4
2017-Jun-16 00:18N 37°58' W 074°43'613.5
2017-Jun-15 23:53N 38°03' W 074°39'713.4
2017-Jun-15 23:20N 38°09' W 074°33'413.4
2017-Jun-15 23:00N 38°12' W 074°30'713.5
2017-Jun-15 22:30N 38°18' W 074°25'713.6
2017-Jun-15 22:00N 38°23' W 074°20'713.5
2017-Jun-15 21:30N 38°29' W 074°15'713.2
2017-Jun-15 21:00N 38°35' W 074°12'713.2
2017-Jun-15 20:29N 38°42' W 074°10'613.1
2017-Jun-15 20:01N 38°48' W 074°08'612.9
2017-Jun-15 19:30N 38°54' W 074°06'712.9
2017-Jun-15 18:59N 39°00' W 074°04'612.8
2017-Jun-15 18:29N 39°07' W 074°01'612.8
2017-Jun-15 18:01N 39°12' W 073°59'612.8
2017-Jun-15 17:30N 39°19' W 073°57'712.7
2017-Jun-15 16:58N 39°25' W 073°55'612.7
2017-Jun-15 16:29N 39°31' W 073°53'612.4
2017-Jun-15 16:00N 39°37' W 073°51'612.7
2017-Jun-15 15:30N 39°43' W 073°51'612.9
2017-Jun-15 15:00N 39°50' W 073°51'1312.7
2017-Jun-15 14:00N 40°03' W 073°50'712.8
2017-Jun-15 13:30N 40°09' W 073°49'612.8
2017-Jun-15 13:00N 40°15' W 073°49'612.8
2017-Jun-15 12:30N 40°22' W 073°49'611.4
2017-Jun-15 12:00N 40°27' W 073°50'714.2
2017-Jun-15 11:31N 40°31' W 073°59'714.5
2017-Jun-15 11:00N 40°37' W 074°03'3 6.9
2017-Jun-15 10:31N 40°39' W 074°07'2 3.3
2017-Jun-15 10:01N 40°40' W 074°09'0 0.1
2017-Jun-15 09:28N 40°40' W 074°09'0 0.0
2017-Jun-15 09:00N 40°40' W 074°09'0 0.0
2017-Jun-15 08:30N 40°40' W 074°09'0 0.0
2017-Jun-15 08:00N 40°40' W 074°09'0 0.0
2017-Jun-15 07:30N 40°40' W 074°09'0 0.0
2017-Jun-15 07:00N 40°40' W 074°09'0 0.0
2017-Jun-15 06:29N 40°40' W 074°09'0 0.0
2017-Jun-15 05:59N 40°40' W 074°09'0 0.0
2017-Jun-15 05:29N 40°40' W 074°09'0 0.0
2017-Jun-15 04:59N 40°40' W 074°09'0 0.0
2017-Jun-15 04:29N 40°40' W 074°09'0 0.0
2017-Jun-15 03:58N 40°40' W 074°09'0 0.0
2017-Jun-15 03:28N 40°40' W 074°09'0 0.0
2017-Jun-15 02:58N 40°40' W 074°09'0 0.0
2017-Jun-15 02:28N 40°40' W 074°09'0 0.0
2017-Jun-15 02:00N 40°40' W 074°09'0 0.0
2017-Jun-15 01:30N 40°40' W 074°09'0 0.0
2017-Jun-15 01:00N 40°40' W 074°09'0 0.0
2017-Jun-15 00:30N 40°40' W 074°09'0 0.0
2017-Jun-15 00:00N 40°40' W 074°09'0 0.0
2017-Jun-14 23:30N 40°40' W 074°09'0 0.0
2017-Jun-14 22:59N 40°40' W 074°09'0 0.0
2017-Jun-14 22:26N 40°40' W 074°09'0 0.0
2017-Jun-14 21:59N 40°40' W 074°09'0 0.0
2017-Jun-14 21:29N 40°40' W 074°09'0 0.0
2017-Jun-14 20:49N 40°40' W 074°09'0 0.0
2017-Jun-14 20:28N 40°40' W 074°09'0 0.0
2017-Jun-14 19:58N 40°40' W 074°09'0 0.4
2017-Jun-14 19:30N 40°39' W 074°09'2 3.4
2017-Jun-14 19:00N 40°39' W 074°07'3 6.0
2017-Jun-14 18:30N 40°38' W 074°03'510.6
2017-Jun-14 18:00N 40°33' W 074°01'612.9
2017-Jun-14 17:30N 40°29' W 073°54'5 9.7
2017-Jun-14 17:00N 40°28' W 073°48'4 8.7
2017-Jun-14 16:30N 40°27' W 073°42'4 0.4
2017-Jun-14 07:00N 40°29' W 073°38'0 0.0
2017-Jun-14 06:02N 40°29' W 073°38'0 0.0
2017-Jun-14 05:53N 40°29' W 073°38'0 0.0
2017-Jun-14 03:52N 40°29' W 073°38'0 0.2
2017-Jun-14 03:20N 40°29' W 073°38'1 2.2
2017-Jun-14 03:00N 40°28' W 073°37'1011.5
2017-Jun-14 02:08N 40°19' W 073°33'212.8
2017-Jun-14 01:59N 40°18' W 073°31'3412.8
2017-Jun-13 23:21N 39°56' W 072°57'513.2
2017-Jun-13 23:00N 39°53' W 072°53'1213.1
2017-Jun-13 22:05N 39°44' W 072°43'113.0
2017-Jun-13 22:00N 39°43' W 072°42'612.9
2017-Jun-13 21:30N 39°38' W 072°36'713.0
2017-Jun-13 21:00N 39°33' W 072°31'612.5
2017-Jun-13 20:29N 39°28' W 072°25'612.3
2017-Jun-13 19:59N 39°24' W 072°20'612.7
2017-Jun-13 19:29N 39°19' W 072°14'  

Dump ship's entire track history